sensor_id;sensor_type;location;lat;lon;timestamp;P1;durP1;ratioP1;P2;durP2;ratioP2
77522;SDS011;66637;-29.628;-49.938;2023-11-18T00:02:19;4.30;;;2.88;;
77522;SDS011;66637;-29.628;-49.938;2023-11-18T00:04:49;3.40;;;2.72;;
77522;SDS011;66637;-29.628;-49.938;2023-11-18T00:07:21;5.38;;;3.10;;
77522;SDS011;66637;-29.628;-49.938;2023-11-18T00:09:53;4.63;;;2.92;;
77522;SDS011;66637;-29.628;-49.938;2023-11-18T00:12:23;3.47;;;2.55;;
77522;SDS011;66637;-29.628;-49.938;2023-11-18T00:14:54;4.38;;;2.50;;
77522;SDS011;66637;-29.628;-49.938;2023-11-18T00:17:25;3.67;;;2.42;;
77522;SDS011;66637;-29.628;-49.938;2023-11-18T00:19:56;7.43;;;2.85;;
77522;SDS011;66637;-29.628;-49.938;2023-11-18T00:22:27;8.93;;;2.55;;
77522;SDS011;66637;-29.628;-49.938;2023-11-18T00:24:58;3.78;;;2.20;;
77522;SDS011;66637;-29.628;-49.938;2023-11-18T00:27:28;4.57;;;2.15;;
77522;SDS011;66637;-29.628;-49.938;2023-11-18T00:29:59;4.70;;;2.10;;
77522;SDS011;66637;-29.628;-49.938;2023-11-18T00:32:29;4.53;;;2.10;;
77522;SDS011;66637;-29.628;-49.938;2023-11-18T00:35:01;3.45;;;1.92;;
77522;SDS011;66637;-29.628;-49.938;2023-11-18T00:37:34;3.78;;;1.77;;
77522;SDS011;66637;-29.628;-49.938;2023-11-18T00:40:04;4.57;;;1.67;;
77522;SDS011;66637;-29.628;-49.938;2023-11-18T00:42:36;3.78;;;1.85;;
77522;SDS011;66637;-29.628;-49.938;2023-11-18T00:45:10;5.80;;;2.28;;
77522;SDS011;66637;-29.628;-49.938;2023-11-18T00:47:44;5.75;;;1.98;;
77522;SDS011;66637;-29.628;-49.938;2023-11-18T00:50:15;3.78;;;1.85;;
77522;SDS011;66637;-29.628;-49.938;2023-11-18T00:52:47;7.65;;;2.67;;
77522;SDS011;66637;-29.628;-49.938;2023-11-18T00:55:18;11.20;;;2.60;;
77522;SDS011;66637;-29.628;-49.938;2023-11-18T00:57:49;13.75;;;2.55;;
77522;SDS011;66637;-29.628;-49.938;2023-11-18T01:00:20;68.13;;;9.02;;
77522;SDS011;66637;-29.628;-49.938;2023-11-18T01:02:50;99.05;;;12.20;;
77522;SDS011;66637;-29.628;-49.938;2023-11-18T01:05:23;58.10;;;8.98;;
77522;SDS011;66637;-29.628;-49.938;2023-11-18T01:07:53;24.63;;;4.70;;
77522;SDS011;66637;-29.628;-49.938;2023-11-18T01:10:24;54.42;;;7.63;;
77522;SDS011;66637;-29.628;-49.938;2023-11-18T01:12:56;76.78;;;8.95;;
77522;SDS011;66637;-29.628;-49.938;2023-11-18T01:15:27;57.85;;;8.23;;
77522;SDS011;66637;-29.628;-49.938;2023-11-18T01:17:58;63.22;;;9.30;;
77522;SDS011;66637;-29.628;-49.938;2023-11-18T01:20:28;70.93;;;10.00;;
77522;SDS011;66637;-29.628;-49.938;2023-11-18T01:22:58;64.65;;;9.65;;
77522;SDS011;66637;-29.628;-49.938;2023-11-18T01:25:29;62.38;;;10.10;;
77522;SDS011;66637;-29.628;-49.938;2023-11-18T01:28:00;36.40;;;7.30;;
77522;SDS011;66637;-29.628;-49.938;2023-11-18T01:30:33;36.72;;;7.82;;
77522;SDS011;66637;-29.628;-49.938;2023-11-18T01:33:04;71.35;;;12.02;;
77522;SDS011;66637;-29.628;-49.938;2023-11-18T01:35:36;69.93;;;11.80;;
77522;SDS011;66637;-29.628;-49.938;2023-11-18T01:38:06;53.53;;;8.10;;
77522;SDS011;66637;-29.628;-49.938;2023-11-18T01:40:38;70.10;;;9.27;;
77522;SDS011;66637;-29.628;-49.938;2023-11-18T01:43:09;60.65;;;9.10;;
77522;SDS011;66637;-29.628;-49.938;2023-11-18T01:45:44;46.17;;;7.30;;
77522;SDS011;66637;-29.628;-49.938;2023-11-18T01:48:18;84.00;;;12.25;;
77522;SDS011;66637;-29.628;-49.938;2023-11-18T01:50:52;71.95;;;11.27;;
77522;SDS011;66637;-29.628;-49.938;2023-11-18T01:53:25;63.28;;;9.98;;
77522;SDS011;66637;-29.628;-49.938;2023-11-18T01:55:56;64.65;;;9.50;;
77522;SDS011;66637;-29.628;-49.938;2023-11-18T01:58:29;92.32;;;12.13;;
77522;SDS011;66637;-29.628;-49.938;2023-11-18T02:01:00;83.50;;;9.90;;
77522;SDS011;66637;-29.628;-49.938;2023-11-18T02:03:31;59.55;;;8.75;;
77522;SDS011;66637;-29.628;-49.938;2023-11-18T02:06:03;78.45;;;9.20;;
77522;SDS011;66637;-29.628;-49.938;2023-11-18T02:08:36;29.75;;;5.07;;
77522;SDS011;66637;-29.628;-49.938;2023-11-18T02:11:17;19.02;;;4.15;;
77522;SDS011;66637;-29.628;-49.938;2023-11-18T02:13:54;25.30;;;4.57;;
77522;SDS011;66637;-29.628;-49.938;2023-11-18T02:16:29;52.88;;;6.93;;
77522;SDS011;66637;-29.628;-49.938;2023-11-18T02:19:02;66.07;;;8.13;;
77522;SDS011;66637;-29.628;-49.938;2023-11-18T02:21:38;40.47;;;5.88;;
77522;SDS011;66637;-29.628;-49.938;2023-11-18T02:24:11;61.55;;;8.95;;
77522;SDS011;66637;-29.628;-49.938;2023-11-18T02:26:57;50.95;;;10.38;;
77522;SDS011;66637;-29.628;-49.938;2023-11-18T02:29:29;158.70;;;19.35;;
77522;SDS011;66637;-29.628;-49.938;2023-11-18T02:32:11;163.27;;;20.10;;
77522;SDS011;66637;-29.628;-49.938;2023-11-18T02:35:09;138.23;;;15.95;;
77522;SDS011;66637;-29.628;-49.938;2023-11-18T02:37:51;116.50;;;13.32;;
77522;SDS011;66637;-29.628;-49.938;2023-11-18T02:40:35;143.73;;;16.17;;
77522;SDS011;66637;-29.628;-49.938;2023-11-18T02:43:11;137.48;;;15.98;;
77522;SDS011;66637;-29.628;-49.938;2023-11-18T02:45:42;150.55;;;15.43;;
77522;SDS011;66637;-29.628;-49.938;2023-11-18T02:48:18;95.10;;;11.60;;
77522;SDS011;66637;-29.628;-49.938;2023-11-18T02:50:54;102.28;;;11.55;;
77522;SDS011;66637;-29.628;-49.938;2023-11-18T02:53:42;104.43;;;10.63;;
77522;SDS011;66637;-29.628;-49.938;2023-11-18T02:56:16;98.53;;;11.07;;
77522;SDS011;66637;-29.628;-49.938;2023-11-18T02:58:55;62.20;;;9.13;;
77522;SDS011;66637;-29.628;-49.938;2023-11-18T03:01:28;69.90;;;9.75;;
77522;SDS011;66637;-29.628;-49.938;2023-11-18T03:04:00;88.15;;;11.10;;
77522;SDS011;66637;-29.628;-49.938;2023-11-18T03:06:34;82.70;;;10.80;;
77522;SDS011;66637;-29.628;-49.938;2023-11-18T03:09:08;58.85;;;9.30;;
77522;SDS011;66637;-29.628;-49.938;2023-11-18T03:11:40;57.60;;;8.23;;
77522;SDS011;66637;-29.628;-49.938;2023-11-18T03:14:13;67.20;;;9.00;;
77522;SDS011;66637;-29.628;-49.938;2023-11-18T03:16:44;57.33;;;9.25;;
77522;SDS011;66637;-29.628;-49.938;2023-11-18T03:19:16;46.22;;;6.82;;
77522;SDS011;66637;-29.628;-49.938;2023-11-18T03:21:51;56.95;;;8.30;;
77522;SDS011;66637;-29.628;-49.938;2023-11-18T03:24:27;58.33;;;9.15;;
77522;SDS011;66637;-29.628;-49.938;2023-11-18T03:26:58;48.65;;;8.75;;
77522;SDS011;66637;-29.628;-49.938;2023-11-18T03:29:28;51.45;;;9.50;;
77522;SDS011;66637;-29.628;-49.938;2023-11-18T03:31:59;43.70;;;7.18;;
77522;SDS011;66637;-29.628;-49.938;2023-11-18T03:34:29;43.97;;;7.80;;
77522;SDS011;66637;-29.628;-49.938;2023-11-18T03:37:00;52.15;;;7.45;;
77522;SDS011;66637;-29.628;-49.938;2023-11-18T03:39:31;71.75;;;9.70;;
77522;SDS011;66637;-29.628;-49.938;2023-11-18T03:42:01;74.32;;;9.32;;
77522;SDS011;66637;-29.628;-49.938;2023-11-18T03:44:33;72.47;;;9.25;;
77522;SDS011;66637;-29.628;-49.938;2023-11-18T03:47:04;85.55;;;10.48;;
77522;SDS011;66637;-29.628;-49.938;2023-11-18T03:49:36;73.88;;;8.73;;
77522;SDS011;66637;-29.628;-49.938;2023-11-18T03:52:07;56.33;;;7.80;;
77522;SDS011;66637;-29.628;-49.938;2023-11-18T03:54:38;50.50;;;7.50;;
77522;SDS011;66637;-29.628;-49.938;2023-11-18T03:57:09;51.20;;;7.18;;
77522;SDS011;66637;-29.628;-49.938;2023-11-18T03:59:40;88.45;;;10.85;;
77522;SDS011;66637;-29.628;-49.938;2023-11-18T04:02:10;89.60;;;10.40;;
77522;SDS011;66637;-29.628;-49.938;2023-11-18T04:04:41;88.32;;;10.95;;
77522;SDS011;66637;-29.628;-49.938;2023-11-18T04:07:13;83.78;;;10.88;;
77522;SDS011;66637;-29.628;-49.938;2023-11-18T04:09:43;80.78;;;9.52;;
77522;SDS011;66637;-29.628;-49.938;2023-11-18T04:12:14;57.10;;;8.13;;
77522;SDS011;66637;-29.628;-49.938;2023-11-18T04:14:46;47.58;;;7.47;;
77522;SDS011;66637;-29.628;-49.938;2023-11-18T04:17:16;40.28;;;6.75;;
77522;SDS011;66637;-29.628;-49.938;2023-11-18T04:19:47;38.13;;;6.05;;
77522;SDS011;66637;-29.628;-49.938;2023-11-18T04:22:17;25.20;;;6.85;;
77522;SDS011;66637;-29.628;-49.938;2023-11-18T04:24:48;33.00;;;7.45;;
77522;SDS011;66637;-29.628;-49.938;2023-11-18T04:27:19;41.42;;;7.93;;
77522;SDS011;66637;-29.628;-49.938;2023-11-18T04:29:50;39.50;;;9.23;;
77522;SDS011;66637;-29.628;-49.938;2023-11-18T04:32:21;34.00;;;8.88;;
77522;SDS011;66637;-29.628;-49.938;2023-11-18T04:34:51;50.00;;;10.63;;
77522;SDS011;66637;-29.628;-49.938;2023-11-18T04:37:21;42.08;;;8.90;;
77522;SDS011;66637;-29.628;-49.938;2023-11-18T04:39:52;39.55;;;8.60;;
77522;SDS011;66637;-29.628;-49.938;2023-11-18T04:42:25;29.90;;;6.95;;
77522;SDS011;66637;-29.628;-49.938;2023-11-18T04:44:58;24.27;;;6.57;;
77522;SDS011;66637;-29.628;-49.938;2023-11-18T04:47:28;22.95;;;6.68;;
77522;SDS011;66637;-29.628;-49.938;2023-11-18T04:49:59;21.83;;;6.80;;
77522;SDS011;66637;-29.628;-49.938;2023-11-18T04:52:31;20.20;;;6.53;;
77522;SDS011;66637;-29.628;-49.938;2023-11-18T04:55:04;18.70;;;6.82;;
77522;SDS011;66637;-29.628;-49.938;2023-11-18T04:57:35;17.63;;;6.85;;
77522;SDS011;66637;-29.628;-49.938;2023-11-18T05:00:08;21.10;;;6.80;;
77522;SDS011;66637;-29.628;-49.938;2023-11-18T05:02:45;22.48;;;7.13;;
77522;SDS011;66637;-29.628;-49.938;2023-11-18T05:05:18;20.27;;;7.55;;
77522;SDS011;66637;-29.628;-49.938;2023-11-18T05:07:49;19.02;;;8.50;;
77522;SDS011;66637;-29.628;-49.938;2023-11-18T05:10:19;17.52;;;7.20;;
77522;SDS011;66637;-29.628;-49.938;2023-11-18T05:12:53;19.42;;;7.68;;
77522;SDS011;66637;-29.628;-49.938;2023-11-18T05:15:26;24.58;;;8.90;;
77522;SDS011;66637;-29.628;-49.938;2023-11-18T05:17:59;22.35;;;9.05;;
77522;SDS011;66637;-29.628;-49.938;2023-11-18T05:20:31;19.05;;;8.93;;
77522;SDS011;66637;-29.628;-49.938;2023-11-18T05:23:01;53.85;;;11.60;;
77522;SDS011;66637;-29.628;-49.938;2023-11-18T05:25:32;49.88;;;12.27;;
77522;SDS011;66637;-29.628;-49.938;2023-11-18T05:28:02;53.22;;;11.60;;
77522;SDS011;66637;-29.628;-49.938;2023-11-18T05:30:41;70.82;;;13.57;;
77522;SDS011;66637;-29.628;-49.938;2023-11-18T05:33:15;46.42;;;11.38;;
77522;SDS011;66637;-29.628;-49.938;2023-11-18T05:35:47;37.20;;;9.73;;
77522;SDS011;66637;-29.628;-49.938;2023-11-18T05:38:21;32.90;;;9.23;;
77522;SDS011;66637;-29.628;-49.938;2023-11-18T05:40:53;26.50;;;8.80;;
77522;SDS011;66637;-29.628;-49.938;2023-11-18T05:43:27;20.65;;;8.80;;
77522;SDS011;66637;-29.628;-49.938;2023-11-18T05:46:00;17.48;;;7.97;;
77522;SDS011;66637;-29.628;-49.938;2023-11-18T05:48:49;15.45;;;7.47;;
77522;SDS011;66637;-29.628;-49.938;2023-11-18T05:51:21;37.15;;;9.85;;
77522;SDS011;66637;-29.628;-49.938;2023-11-18T05:53:52;65.07;;;11.88;;
77522;SDS011;66637;-29.628;-49.938;2023-11-18T05:56:25;59.83;;;11.63;;
77522;SDS011;66637;-29.628;-49.938;2023-11-18T05:58:55;57.28;;;11.55;;
77522;SDS011;66637;-29.628;-49.938;2023-11-18T06:01:26;62.60;;;11.77;;
77522;SDS011;66637;-29.628;-49.938;2023-11-18T06:03:56;56.05;;;11.20;;
77522;SDS011;66637;-29.628;-49.938;2023-11-18T06:06:29;40.53;;;9.88;;
77522;SDS011;66637;-29.628;-49.938;2023-11-18T06:09:01;54.72;;;10.48;;
77522;SDS011;66637;-29.628;-49.938;2023-11-18T06:11:39;50.30;;;10.43;;
77522;SDS011;66637;-29.628;-49.938;2023-11-18T06:14:10;60.30;;;10.30;;
77522;SDS011;66637;-29.628;-49.938;2023-11-18T06:16:41;47.55;;;9.75;;
77522;SDS011;66637;-29.628;-49.938;2023-11-18T06:19:14;52.13;;;9.88;;
77522;SDS011;66637;-29.628;-49.938;2023-11-18T06:21:44;50.03;;;9.50;;
77522;SDS011;66637;-29.628;-49.938;2023-11-18T06:24:15;52.60;;;10.00;;
77522;SDS011;66637;-29.628;-49.938;2023-11-18T06:26:47;48.40;;;9.77;;
77522;SDS011;66637;-29.628;-49.938;2023-11-18T06:29:18;45.17;;;8.20;;
77522;SDS011;66637;-29.628;-49.938;2023-11-18T06:31:49;41.15;;;8.23;;
77522;SDS011;66637;-29.628;-49.938;2023-11-18T06:34:20;38.03;;;7.88;;
77522;SDS011;66637;-29.628;-49.938;2023-11-18T06:36:51;36.40;;;6.30;;
77522;SDS011;66637;-29.628;-49.938;2023-11-18T06:39:21;23.80;;;5.97;;
77522;SDS011;66637;-29.628;-49.938;2023-11-18T06:41:58;46.42;;;8.07;;
77522;SDS011;66637;-29.628;-49.938;2023-11-18T06:44:29;37.45;;;7.03;;
77522;SDS011;66637;-29.628;-49.938;2023-11-18T06:46:59;78.93;;;11.95;;
77522;SDS011;66637;-29.628;-49.938;2023-11-18T06:49:31;56.40;;;9.80;;
77522;SDS011;66637;-29.628;-49.938;2023-11-18T06:52:05;55.95;;;8.40;;
77522;SDS011;66637;-29.628;-49.938;2023-11-18T06:54:40;24.35;;;5.95;;
77522;SDS011;66637;-29.628;-49.938;2023-11-18T06:57:11;15.00;;;4.03;;
77522;SDS011;66637;-29.628;-49.938;2023-11-18T06:59:42;38.10;;;7.05;;
77522;SDS011;66637;-29.628;-49.938;2023-11-18T07:02:14;102.53;;;12.68;;
77522;SDS011;66637;-29.628;-49.938;2023-11-18T07:04:44;96.00;;;13.10;;
77522;SDS011;66637;-29.628;-49.938;2023-11-18T07:07:14;80.13;;;11.93;;
77522;SDS011;66637;-29.628;-49.938;2023-11-18T07:09:46;62.92;;;10.27;;
77522;SDS011;66637;-29.628;-49.938;2023-11-18T07:12:19;60.97;;;8.80;;
77522;SDS011;66637;-29.628;-49.938;2023-11-18T07:14:50;53.08;;;8.10;;
77522;SDS011;66637;-29.628;-49.938;2023-11-18T07:17:22;57.65;;;8.52;;
77522;SDS011;66637;-29.628;-49.938;2023-11-18T07:19:52;54.15;;;8.93;;
77522;SDS011;66637;-29.628;-49.938;2023-11-18T07:22:24;61.35;;;8.02;;
77522;SDS011;66637;-29.628;-49.938;2023-11-18T07:24:54;54.72;;;7.43;;
77522;SDS011;66637;-29.628;-49.938;2023-11-18T07:27:28;36.88;;;6.53;;
77522;SDS011;66637;-29.628;-49.938;2023-11-18T07:29:58;49.40;;;6.97;;
77522;SDS011;66637;-29.628;-49.938;2023-11-18T07:32:30;91.97;;;11.27;;
77522;SDS011;66637;-29.628;-49.938;2023-11-18T07:35:01;97.45;;;12.90;;
77522;SDS011;66637;-29.628;-49.938;2023-11-18T07:37:33;24.63;;;4.70;;
77522;SDS011;66637;-29.628;-49.938;2023-11-18T07:40:04;10.57;;;3.53;;
77522;SDS011;66637;-29.628;-49.938;2023-11-18T07:42:36;6.50;;;2.80;;
77522;SDS011;66637;-29.628;-49.938;2023-11-18T07:45:06;4.28;;;2.45;;
77522;SDS011;66637;-29.628;-49.938;2023-11-18T07:47:47;4.72;;;2.50;;
77522;SDS011;66637;-29.628;-49.938;2023-11-18T07:50:19;5.38;;;2.88;;
77522;SDS011;66637;-29.628;-49.938;2023-11-18T07:52:50;5.53;;;2.50;;
77522;SDS011;66637;-29.628;-49.938;2023-11-18T07:55:20;7.70;;;2.58;;
77522;SDS011;66637;-29.628;-49.938;2023-11-18T07:57:52;6.65;;;3.13;;
77522;SDS011;66637;-29.628;-49.938;2023-11-18T08:00:24;4.90;;;2.80;;
77522;SDS011;66637;-29.628;-49.938;2023-11-18T08:03:01;4.65;;;2.50;;
77522;SDS011;66637;-29.628;-49.938;2023-11-18T08:05:32;5.88;;;3.15;;
77522;SDS011;66637;-29.628;-49.938;2023-11-18T08:08:03;5.35;;;3.33;;
77522;SDS011;66637;-29.628;-49.938;2023-11-18T08:10:36;5.97;;;2.95;;
77522;SDS011;66637;-29.628;-49.938;2023-11-18T08:13:08;9.13;;;5.88;;
77522;SDS011;66637;-29.628;-49.938;2023-11-18T08:15:38;11.50;;;6.88;;
77522;SDS011;66637;-29.628;-49.938;2023-11-18T08:18:11;9.18;;;6.88;;
77522;SDS011;66637;-29.628;-49.938;2023-11-18T08:20:42;11.45;;;6.32;;
77522;SDS011;66637;-29.628;-49.938;2023-11-18T08:23:14;10.77;;;8.13;;
77522;SDS011;66637;-29.628;-49.938;2023-11-18T08:25:52;11.32;;;8.18;;
77522;SDS011;66637;-29.628;-49.938;2023-11-18T08:28:23;11.10;;;8.48;;
77522;SDS011;66637;-29.628;-49.938;2023-11-18T08:31:01;10.02;;;7.97;;
77522;SDS011;66637;-29.628;-49.938;2023-11-18T08:33:32;11.60;;;9.07;;
77522;SDS011;66637;-29.628;-49.938;2023-11-18T08:36:09;12.52;;;9.52;;
77522;SDS011;66637;-29.628;-49.938;2023-11-18T08:38:44;11.93;;;9.18;;
77522;SDS011;66637;-29.628;-49.938;2023-11-18T08:41:18;11.13;;;7.88;;
77522;SDS011;66637;-29.628;-49.938;2023-11-18T08:43:49;9.95;;;6.63;;
77522;SDS011;66637;-29.628;-49.938;2023-11-18T08:46:20;7.93;;;5.43;;
77522;SDS011;66637;-29.628;-49.938;2023-11-18T08:48:51;7.78;;;4.82;;
77522;SDS011;66637;-29.628;-49.938;2023-11-18T08:51:25;8.77;;;5.60;;
77522;SDS011;66637;-29.628;-49.938;2023-11-18T08:54:02;9.40;;;5.88;;
77522;SDS011;66637;-29.628;-49.938;2023-11-18T08:56:55;8.98;;;6.32;;
77522;SDS011;66637;-29.628;-49.938;2023-11-18T08:59:30;9.75;;;7.22;;
77522;SDS011;66637;-29.628;-49.938;2023-11-18T09:02:03;9.38;;;7.80;;
77522;SDS011;66637;-29.628;-49.938;2023-11-18T09:04:41;8.80;;;6.93;;
77522;SDS011;66637;-29.628;-49.938;2023-11-18T09:07:18;9.38;;;7.85;;
77522;SDS011;66637;-29.628;-49.938;2023-11-18T09:09:55;10.63;;;7.80;;
77522;SDS011;66637;-29.628;-49.938;2023-11-18T09:12:27;10.18;;;7.28;;
77522;SDS011;66637;-29.628;-49.938;2023-11-18T09:14:59;9.95;;;7.72;;
77522;SDS011;66637;-29.628;-49.938;2023-11-18T09:17:35;9.55;;;7.70;;
77522;SDS011;66637;-29.628;-49.938;2023-11-18T09:20:07;9.13;;;7.78;;
77522;SDS011;66637;-29.628;-49.938;2023-11-18T09:22:45;26.20;;;9.20;;
77522;SDS011;66637;-29.628;-49.938;2023-11-18T09:25:16;82.97;;;13.77;;
77522;SDS011;66637;-29.628;-49.938;2023-11-18T09:27:46;52.47;;;11.88;;
77522;SDS011;66637;-29.628;-49.938;2023-11-18T09:30:34;16.80;;;8.90;;
77522;SDS011;66637;-29.628;-49.938;2023-11-18T09:33:16;12.60;;;8.52;;
77522;SDS011;66637;-29.628;-49.938;2023-11-18T09:35:57;12.50;;;7.82;;
77522;SDS011;66637;-29.628;-49.938;2023-11-18T09:38:33;14.00;;;8.05;;
77522;SDS011;66637;-29.628;-49.938;2023-11-18T09:41:08;9.02;;;6.50;;
77522;SDS011;66637;-29.628;-49.938;2023-11-18T09:43:44;9.20;;;7.05;;
77522;SDS011;66637;-29.628;-49.938;2023-11-18T09:46:17;10.60;;;7.07;;
77522;SDS011;66637;-29.628;-49.938;2023-11-18T09:52:03;7.85;;;6.28;;
77522;SDS011;66637;-29.628;-49.938;2023-11-18T09:54:45;8.38;;;6.47;;
77522;SDS011;66637;-29.628;-49.938;2023-11-18T09:58:04;8.27;;;6.47;;
77522;SDS011;66637;-29.628;-49.938;2023-11-18T10:00:42;7.70;;;5.95;;
77522;SDS011;66637;-29.628;-49.938;2023-11-18T10:03:17;7.30;;;6.05;;
77522;SDS011;66637;-29.628;-49.938;2023-11-18T10:05:48;6.78;;;5.93;;
77522;SDS011;66637;-29.628;-49.938;2023-11-18T10:08:23;7.88;;;6.18;;
77522;SDS011;66637;-29.628;-49.938;2023-11-18T10:10:56;6.45;;;5.75;;
77522;SDS011;66637;-29.628;-49.938;2023-11-18T10:13:35;48.35;;;9.65;;
77522;SDS011;66637;-29.628;-49.938;2023-11-18T10:16:10;87.35;;;14.60;;
77522;SDS011;66637;-29.628;-49.938;2023-11-18T10:18:46;98.82;;;15.48;;
77522;SDS011;66637;-29.628;-49.938;2023-11-18T10:21:25;29.75;;;8.68;;
77522;SDS011;66637;-29.628;-49.938;2023-11-18T10:24:24;9.35;;;7.47;;
77522;SDS011;66637;-29.628;-49.938;2023-11-18T10:26:56;24.77;;;8.50;;
77522;SDS011;66637;-29.628;-49.938;2023-11-18T10:29:28;25.10;;;9.70;;
77522;SDS011;66637;-29.628;-49.938;2023-11-18T10:32:07;122.15;;;20.00;;
77522;SDS011;66637;-29.628;-49.938;2023-11-18T10:34:48;61.83;;;13.55;;
77522;SDS011;66637;-29.628;-49.938;2023-11-18T10:37:22;69.18;;;15.00;;
77522;SDS011;66637;-29.628;-49.938;2023-11-18T10:40:05;25.33;;;9.88;;
77522;SDS011;66637;-29.628;-49.938;2023-11-18T10:42:40;19.15;;;9.13;;
77522;SDS011;66637;-29.628;-49.938;2023-11-18T10:45:23;17.25;;;8.68;;
77522;SDS011;66637;-29.628;-49.938;2023-11-18T10:47:58;11.75;;;8.77;;
77522;SDS011;66637;-29.628;-49.938;2023-11-18T10:50:29;15.75;;;9.02;;
77522;SDS011;66637;-29.628;-49.938;2023-11-18T10:53:01;58.58;;;14.25;;
77522;SDS011;66637;-29.628;-49.938;2023-11-18T10:55:56;102.93;;;19.17;;
77522;SDS011;66637;-29.628;-49.938;2023-11-18T10:58:34;124.32;;;23.02;;
77522;SDS011;66637;-29.628;-49.938;2023-11-18T11:01:13;93.85;;;19.33;;
77522;SDS011;66637;-29.628;-49.938;2023-11-18T11:03:52;148.35;;;23.88;;
77522;SDS011;66637;-29.628;-49.938;2023-11-18T11:06:28;140.60;;;24.42;;
77522;SDS011;66637;-29.628;-49.938;2023-11-18T11:09:06;150.55;;;21.73;;
77522;SDS011;66637;-29.628;-49.938;2023-11-18T11:11:52;149.13;;;22.75;;
77522;SDS011;66637;-29.628;-49.938;2023-11-18T11:14:26;115.00;;;19.45;;
77522;SDS011;66637;-29.628;-49.938;2023-11-18T11:17:17;109.60;;;19.05;;
77522;SDS011;66637;-29.628;-49.938;2023-11-18T11:20:06;67.47;;;14.88;;
77522;SDS011;66637;-29.628;-49.938;2023-11-18T11:23:11;58.25;;;13.07;;
77522;SDS011;66637;-29.628;-49.938;2023-11-18T11:26:07;42.75;;;12.13;;
77522;SDS011;66637;-29.628;-49.938;2023-11-18T11:29:14;29.85;;;11.25;;
77522;SDS011;66637;-29.628;-49.938;2023-11-18T11:32:12;25.27;;;10.57;;
77522;SDS011;66637;-29.628;-49.938;2023-11-18T11:34:55;28.48;;;11.65;;
77522;SDS011;66637;-29.628;-49.938;2023-11-18T11:37:36;24.75;;;11.00;;
77522;SDS011;66637;-29.628;-49.938;2023-11-18T11:41:05;18.38;;;9.10;;
77522;SDS011;66637;-29.628;-49.938;2023-11-18T11:43:59;16.08;;;8.95;;
77522;SDS011;66637;-29.628;-49.938;2023-11-18T11:46:49;14.60;;;7.95;;
77522;SDS011;66637;-29.628;-49.938;2023-11-18T11:49:41;122.82;;;22.63;;
77522;SDS011;66637;-29.628;-49.938;2023-11-18T11:52:45;128.70;;;19.35;;
77522;SDS011;66637;-29.628;-49.938;2023-11-18T11:55:49;78.93;;;15.30;;
77522;SDS011;66637;-29.628;-49.938;2023-11-18T11:58:28;41.13;;;8.25;;
77522;SDS011;66637;-29.628;-49.938;2023-11-18T12:01:26;15.40;;;6.47;;
77522;SDS011;66637;-29.628;-49.938;2023-11-18T12:04:12;32.65;;;8.88;;
77522;SDS011;66637;-29.628;-49.938;2023-11-18T12:07:01;39.20;;;9.00;;
77522;SDS011;66637;-29.628;-49.938;2023-11-18T12:09:47;22.70;;;7.30;;
77522;SDS011;66637;-29.628;-49.938;2023-11-18T12:12:25;33.97;;;8.15;;
77522;SDS011;66637;-29.628;-49.938;2023-11-18T12:15:00;29.90;;;8.35;;
77522;SDS011;66637;-29.628;-49.938;2023-11-18T12:20:42;15.52;;;6.47;;
77522;SDS011;66637;-29.628;-49.938;2023-11-18T12:23:17;15.13;;;6.85;;
77522;SDS011;66637;-29.628;-49.938;2023-11-18T12:25:52;12.27;;;6.22;;
77522;SDS011;66637;-29.628;-49.938;2023-11-18T12:28:31;12.70;;;5.55;;
77522;SDS011;66637;-29.628;-49.938;2023-11-18T12:31:08;9.85;;;5.03;;
77522;SDS011;66637;-29.628;-49.938;2023-11-18T12:42:07;7.03;;;4.10;;
77522;SDS011;66637;-29.628;-49.938;2023-11-18T12:44:59;7.90;;;3.72;;
77522;SDS011;66637;-29.628;-49.938;2023-11-18T12:48:06;8.57;;;3.78;;
77522;SDS011;66637;-29.628;-49.938;2023-11-18T12:50:42;10.40;;;4.15;;
77522;SDS011;66637;-29.628;-49.938;2023-11-18T12:53:15;7.97;;;4.00;;
77522;SDS011;66637;-29.628;-49.938;2023-11-18T12:55:47;8.55;;;3.75;;
77522;SDS011;66637;-29.628;-49.938;2023-11-18T12:58:18;6.78;;;3.53;;
77522;SDS011;66637;-29.628;-49.938;2023-11-18T13:00:49;6.25;;;3.50;;
77522;SDS011;66637;-29.628;-49.938;2023-11-18T13:03:21;4.97;;;3.22;;
77522;SDS011;66637;-29.628;-49.938;2023-11-18T13:05:53;4.90;;;3.65;;
77522;SDS011;66637;-29.628;-49.938;2023-11-18T13:08:24;5.82;;;3.38;;
77522;SDS011;66637;-29.628;-49.938;2023-11-18T13:10:56;4.90;;;3.30;;
77522;SDS011;66637;-29.628;-49.938;2023-11-18T13:13:35;3.95;;;3.45;;
77522;SDS011;66637;-29.628;-49.938;2023-11-18T13:16:06;4.53;;;3.80;;
77522;SDS011;66637;-29.628;-49.938;2023-11-18T13:18:41;4.60;;;3.45;;
77522;SDS011;66637;-29.628;-49.938;2023-11-18T13:21:16;3.80;;;3.10;;
77522;SDS011;66637;-29.628;-49.938;2023-11-18T13:23:49;5.05;;;3.20;;
77522;SDS011;66637;-29.628;-49.938;2023-11-18T13:26:24;4.70;;;3.83;;
77522;SDS011;66637;-29.628;-49.938;2023-11-18T13:28:56;5.10;;;4.60;;
77522;SDS011;66637;-29.628;-49.938;2023-11-18T13:31:28;4.93;;;4.30;;
77522;SDS011;66637;-29.628;-49.938;2023-11-18T13:33:58;3.92;;;3.53;;
77522;SDS011;66637;-29.628;-49.938;2023-11-18T13:36:30;4.70;;;3.78;;
77522;SDS011;66637;-29.628;-49.938;2023-11-18T13:39:02;5.40;;;3.70;;
77522;SDS011;66637;-29.628;-49.938;2023-11-18T13:41:37;3.70;;;3.35;;
77522;SDS011;66637;-29.628;-49.938;2023-11-18T13:44:07;5.45;;;3.60;;
77522;SDS011;66637;-29.628;-49.938;2023-11-18T13:46:41;3.80;;;3.30;;
77522;SDS011;66637;-29.628;-49.938;2023-11-18T13:49:11;4.38;;;3.63;;
77522;SDS011;66637;-29.628;-49.938;2023-11-18T13:51:44;4.15;;;3.13;;
77522;SDS011;66637;-29.628;-49.938;2023-11-18T13:54:14;4.60;;;3.90;;
77522;SDS011;66637;-29.628;-49.938;2023-11-18T13:56:49;3.90;;;3.45;;
77522;SDS011;66637;-29.628;-49.938;2023-11-18T13:59:20;4.68;;;3.42;;
77522;SDS011;66637;-29.628;-49.938;2023-11-18T14:01:53;4.18;;;3.25;;
77522;SDS011;66637;-29.628;-49.938;2023-11-18T14:04:24;4.35;;;3.08;;
77522;SDS011;66637;-29.628;-49.938;2023-11-18T14:06:58;4.40;;;3.10;;
77522;SDS011;66637;-29.628;-49.938;2023-11-18T14:09:37;4.22;;;3.20;;
77522;SDS011;66637;-29.628;-49.938;2023-11-18T14:12:12;5.25;;;3.25;;
77522;SDS011;66637;-29.628;-49.938;2023-11-18T14:14:43;4.13;;;3.30;;
77522;SDS011;66637;-29.628;-49.938;2023-11-18T14:17:15;4.38;;;3.10;;
77522;SDS011;66637;-29.628;-49.938;2023-11-18T14:19:47;4.22;;;3.33;;
77522;SDS011;66637;-29.628;-49.938;2023-11-18T14:22:20;6.57;;;3.83;;
77522;SDS011;66637;-29.628;-49.938;2023-11-18T14:24:50;5.43;;;3.75;;
77522;SDS011;66637;-29.628;-49.938;2023-11-18T14:27:21;4.40;;;3.55;;
77522;SDS011;66637;-29.628;-49.938;2023-11-18T14:29:53;6.22;;;4.50;;
77522;SDS011;66637;-29.628;-49.938;2023-11-18T14:32:24;9.35;;;5.43;;
77522;SDS011;66637;-29.628;-49.938;2023-11-18T14:34:57;5.57;;;3.60;;
77522;SDS011;66637;-29.628;-49.938;2023-11-18T14:37:27;6.13;;;3.35;;
77522;SDS011;66637;-29.628;-49.938;2023-11-18T14:39:58;5.70;;;3.63;;
77522;SDS011;66637;-29.628;-49.938;2023-11-18T14:42:30;5.28;;;3.30;;
77522;SDS011;66637;-29.628;-49.938;2023-11-18T14:45:02;6.25;;;3.90;;
77522;SDS011;66637;-29.628;-49.938;2023-11-18T14:47:34;7.35;;;3.53;;
77522;SDS011;66637;-29.628;-49.938;2023-11-18T14:50:05;8.10;;;3.63;;
77522;SDS011;66637;-29.628;-49.938;2023-11-18T14:52:46;6.13;;;3.88;;
77522;SDS011;66637;-29.628;-49.938;2023-11-18T14:55:26;8.55;;;4.00;;